createdAt,value
2019-03-21T00:01:31.724Z,5.03
2019-03-21T00:04:38.696Z,5.05
2019-03-21T00:07:45.966Z,5.04
2019-03-21T00:11:38.862Z,4.59
2019-03-21T00:15:08.729Z,4.99
2019-03-21T00:18:15.994Z,4.97
2019-03-21T00:21:23.484Z,4.96
2019-03-21T00:24:30.425Z,4.94
2019-03-21T00:27:37.489Z,4.92
2019-03-21T00:30:44.422Z,4.88
2019-03-21T00:33:51.460Z,4.83
2019-03-21T00:36:58.469Z,4.46
2019-03-21T00:40:07.335Z,4.93
2019-03-21T00:43:14.270Z,4.93
2019-03-21T00:46:21.085Z,4.81
2019-03-21T00:49:27.955Z,4.77
2019-03-21T00:52:35.178Z,4.77
2019-03-21T00:55:43.029Z,4.92
2019-03-21T00:58:50.203Z,4.76
2019-03-21T01:01:57.181Z,4.85
2019-03-21T01:05:04.392Z,4.93
2019-03-21T01:08:11.165Z,4.92
2019-03-21T01:11:19.008Z,4.87
2019-03-21T01:14:30.051Z,4.78
2019-03-21T01:17:34.925Z,4.60
2019-03-21T01:20:41.793Z,4.62
2019-03-21T01:23:48.681Z,4.64
2019-03-21T01:26:55.548Z,4.86
2019-03-21T01:30:02.528Z,4.59
2019-03-21T01:33:09.669Z,4.50
2019-03-21T01:36:17.024Z,4.63
2019-03-21T01:39:24.014Z,4.64
2019-03-21T01:42:31.004Z,4.68
2019-03-21T01:45:37.866Z,4.48
2019-03-21T01:48:44.983Z,4.44
2019-03-21T01:51:51.971Z,4.30
2019-03-21T01:54:59.361Z,4.30
2019-03-21T01:58:06.924Z,4.40
2019-03-21T02:01:13.845Z,4.51
2019-03-21T02:04:20.750Z,4.44
2019-03-21T02:07:27.815Z,4.47
2019-03-21T02:10:34.803Z,4.37
2019-03-21T02:13:42.267Z,4.40
2019-03-21T02:16:49.123Z,4.36
2019-03-21T02:19:56.560Z,4.30
2019-03-21T02:23:03.521Z,4.37
2019-03-21T02:26:10.440Z,4.26
2019-03-21T02:29:17.366Z,4.26
2019-03-21T02:32:24.582Z,4.30
2019-03-21T02:35:31.442Z,4.30
2019-03-21T02:38:38.285Z,4.43
2019-03-21T02:41:45.143Z,4.43
2019-03-21T02:45:07.221Z,4.32
2019-03-21T02:48:00.826Z,4.21
2019-03-21T02:51:08.083Z,4.25
2019-03-21T02:54:15.029Z,4.19
2019-03-21T02:57:22.074Z,4.22
2019-03-21T03:00:29.510Z,4.28
2019-03-21T03:03:36.509Z,4.35
2019-03-21T03:06:43.287Z,4.47
2019-03-21T03:09:50.248Z,4.36
2019-03-21T03:12:57.125Z,4.40
2019-03-21T03:16:04.526Z,4.39
2019-03-21T03:19:11.394Z,4.31
2019-03-21T03:22:18.686Z,4.27
2019-03-21T03:25:25.550Z,4.38
2019-03-21T03:28:32.799Z,4.37
2019-03-21T03:31:39.672Z,4.32
2019-03-21T03:34:46.735Z,4.48
2019-03-21T03:37:53.561Z,4.55
2019-03-21T03:41:01.271Z,4.51
2019-03-21T03:44:08.466Z,4.49
2019-03-21T03:47:15.617Z,4.53
2019-03-21T03:50:22.483Z,4.39
2019-03-21T03:53:29.359Z,4.36
2019-03-21T03:56:36.190Z,4.22
2019-03-21T03:59:43.295Z,4.46
2019-03-21T04:02:51.457Z,4.37
2019-03-21T04:05:58.519Z,4.28
2019-03-21T04:09:07.375Z,4.27
2019-03-21T04:12:14.530Z,4.34
2019-03-21T04:15:22.462Z,4.42
2019-03-21T04:18:30.006Z,4.28
2019-03-21T04:21:36.942Z,4.18
2019-03-21T04:24:44.371Z,4.12
2019-03-21T04:27:51.237Z,4.26
2019-03-21T04:30:58.077Z,4.24
2019-03-21T04:34:06.501Z,4.42
2019-03-21T04:37:13.644Z,4.31
2019-03-21T04:40:20.482Z,4.27
2019-03-21T04:43:27.376Z,4.46
2019-03-21T04:46:34.179Z,4.28
2019-03-21T04:49:41.223Z,4.44
2019-03-21T04:52:48.227Z,4.39
2019-03-21T04:55:55.341Z,4.30
2019-03-21T04:59:02.229Z,4.42
2019-03-21T05:02:10.281Z,4.44
2019-03-21T05:05:17.249Z,4.36
2019-03-21T05:08:24.194Z,4.27
2019-03-21T05:11:31.050Z,4.18
2019-03-21T05:14:38.192Z,4.12
2019-03-21T05:17:45.806Z,4.25
2019-03-21T05:20:53.224Z,4.14
2019-03-21T05:24:00.108Z,4.18
2019-03-21T05:27:07.318Z,4.37
2019-03-21T05:30:17.503Z,4.25
2019-03-21T05:33:24.317Z,4.24
2019-03-21T05:36:31.327Z,4.23
2019-03-21T05:39:38.565Z,4.20
2019-03-21T05:42:56.200Z,4.24
2019-03-21T05:46:03.341Z,4.40
2019-03-21T05:49:10.264Z,4.36
2019-03-21T05:52:17.393Z,4.45
2019-03-21T05:55:26.751Z,4.51
2019-03-21T05:58:34.357Z,4.60
2019-03-21T06:01:41.219Z,4.69
2019-03-21T06:04:48.342Z,4.69
2019-03-21T06:08:10.825Z,4.77
2019-03-21T06:11:18.052Z,4.91
2019-03-21T06:14:25.189Z,4.91
2019-03-21T06:17:34.164Z,4.97
2019-03-21T06:21:13.198Z,5.01
2019-03-21T06:24:50.509Z,5.10
2019-03-21T06:27:57.516Z,5.01
2019-03-21T06:31:04.666Z,5.08
2019-03-21T06:34:11.487Z,5.24
2019-03-21T06:37:18.501Z,5.24
2019-03-21T06:40:25.475Z,5.26
2019-03-21T06:43:32.478Z,5.37
2019-03-21T06:46:48.761Z,5.39
2019-03-21T06:49:48.516Z,5.47
2019-03-21T06:52:55.426Z,5.55
2019-03-21T06:56:02.221Z,5.57
2019-03-21T06:59:09.015Z,5.61
2019-03-21T07:02:16.022Z,5.70
2019-03-21T07:05:23.067Z,5.74
2019-03-21T07:08:30.037Z,5.82
2019-03-21T07:11:36.942Z,5.85
2019-03-21T07:14:43.918Z,5.94
2019-03-21T07:17:50.738Z,5.93
2019-03-21T07:21:00.978Z,6.02
2019-03-21T07:24:07.042Z,6.13
2019-03-21T07:27:14.150Z,5.97
2019-03-21T07:30:21.243Z,5.97
2019-03-21T07:33:28.204Z,6.08
2019-03-21T07:36:35.108Z,6.16
2019-03-21T07:39:42.299Z,6.22
2019-03-21T07:42:49.387Z,6.22
2019-03-21T07:45:56.437Z,6.27
2019-03-21T07:49:04.292Z,6.36
2019-03-21T07:52:11.396Z,6.48
2019-03-21T07:55:18.456Z,6.51
2019-03-21T07:58:25.302Z,6.53
2019-03-21T08:01:33.174Z,6.68
2019-03-21T08:04:40.531Z,6.72
2019-03-21T08:07:47.516Z,6.75
2019-03-21T08:10:54.616Z,6.75
2019-03-21T08:14:01.534Z,6.83
2019-03-21T08:17:08.477Z,6.85
2019-03-21T08:20:15.925Z,6.85
2019-03-21T08:23:23.170Z,6.97
2019-03-21T08:26:31.041Z,7.01
2019-03-21T08:29:38.006Z,7.08
2019-03-21T08:32:45.049Z,7.11
2019-03-21T08:35:52.048Z,7.17
2019-03-21T08:38:58.938Z,7.25
2019-03-21T08:42:05.897Z,7.38
2019-03-21T08:45:13.032Z,7.41
2019-03-21T08:48:19.982Z,7.50
2019-03-21T08:51:26.903Z,7.53
2019-03-21T08:54:35.026Z,7.67
2019-03-21T08:57:42.093Z,7.70
2019-03-21T09:00:49.202Z,7.82
2019-03-21T09:03:56.088Z,7.94
2019-03-21T09:07:03.083Z,7.94
2019-03-21T09:10:10.296Z,8.04
2019-03-21T09:13:17.267Z,8.15
2019-03-21T09:16:24.218Z,8.22
2019-03-21T09:19:31.069Z,8.21
2019-03-21T09:22:37.915Z,8.24
2019-03-21T09:25:44.973Z,8.21
2019-03-21T09:28:52.714Z,8.28
2019-03-21T09:31:59.631Z,8.39
2019-03-21T09:35:07.412Z,8.42
2019-03-21T09:38:14.806Z,8.50
2019-03-21T09:41:21.752Z,8.52
2019-03-21T09:44:29.353Z,8.55
2019-03-21T09:47:36.308Z,8.61
2019-03-21T09:50:43.419Z,8.64
2019-03-21T09:53:50.288Z,8.77
2019-03-21T09:56:58.053Z,8.80
2019-03-21T10:00:05.646Z,8.81
2019-03-21T10:03:12.688Z,8.92
2019-03-21T10:06:19.630Z,8.94
2019-03-21T10:09:26.461Z,9.01
2019-03-21T10:12:33.404Z,9.04
2019-03-21T10:15:40.436Z,9.06
2019-03-21T10:18:47.218Z,9.09
2019-03-21T10:21:54.225Z,9.12
2019-03-21T10:25:01.138Z,9.16
2019-03-21T10:28:08.437Z,9.23
2019-03-21T10:31:15.311Z,9.32
2019-03-21T10:34:22.692Z,9.39
2019-03-21T10:37:30.003Z,9.39
2019-03-21T10:40:37.024Z,9.41
2019-03-21T10:43:43.985Z,9.46
2019-03-21T10:46:50.961Z,9.57
2019-03-21T10:49:57.997Z,9.57
2019-03-21T10:53:06.758Z,9.63
2019-03-21T10:56:14.552Z,9.68
2019-03-21T10:59:21.504Z,9.72
2019-03-21T11:02:28.355Z,9.81
2019-03-21T11:05:35.198Z,9.89
2019-03-21T11:08:42.003Z,9.96
2019-03-21T11:11:48.943Z,10.01
2019-03-21T11:14:55.921Z,10.09
2019-03-21T11:18:02.885Z,10.13
2019-03-21T11:21:09.811Z,10.21
2019-03-21T11:24:16.637Z,10.23
2019-03-21T11:27:23.539Z,10.27
2019-03-21T11:30:32.704Z,10.21
2019-03-21T11:33:39.706Z,10.28
2019-03-21T11:36:46.665Z,10.17
2019-03-21T11:39:53.877Z,10.16
2019-03-21T11:43:01.364Z,10.18
2019-03-21T11:46:08.223Z,10.32
2019-03-21T11:49:15.145Z,10.27
2019-03-21T11:52:22.158Z,10.26
2019-03-21T11:55:29.384Z,10.31
2019-03-21T11:58:36.323Z,10.28
2019-03-21T12:01:43.328Z,10.32
2019-03-21T12:04:50.241Z,10.33
2019-03-21T12:07:57.228Z,10.27
2019-03-21T12:11:04.147Z,10.27
2019-03-21T12:14:11.170Z,10.27
2019-03-21T12:17:18.226Z,10.19
2019-03-21T12:20:35.054Z,10.21
2019-03-21T12:23:42.048Z,10.13
2019-03-21T12:26:49.862Z,10.24
2019-03-21T12:29:57.198Z,10.36
2019-03-21T12:33:04.552Z,10.54
2019-03-21T12:36:11.500Z,10.79
2019-03-21T12:39:18.536Z,11.08
2019-03-21T12:42:25.696Z,11.31
2019-03-21T12:45:32.771Z,11.09
2019-03-21T12:48:39.996Z,11.27
2019-03-21T12:51:47.020Z,11.07
2019-03-21T12:54:54.051Z,10.94
2019-03-21T12:58:01.055Z,10.92
2019-03-21T13:01:08.001Z,10.74
2019-03-21T13:04:15.214Z,10.85
2019-03-21T13:07:22.631Z,10.59
2019-03-21T13:10:29.809Z,10.52
2019-03-21T13:13:36.669Z,10.37
2019-03-21T13:16:43.483Z,10.14
2019-03-21T13:19:50.494Z,10.14
2019-03-21T13:22:57.718Z,10.36
2019-03-21T13:26:04.622Z,10.12
2019-03-21T13:29:11.440Z,9.97
2019-03-21T13:32:18.571Z,9.90
2019-03-21T13:35:33.000Z,9.85
2019-03-21T13:38:37.864Z,9.82
2019-03-21T13:41:44.793Z,9.67
2019-03-21T13:44:52.026Z,9.71
2019-03-21T13:47:58.946Z,9.60
2019-03-21T13:51:05.815Z,9.55
2019-03-21T13:54:12.828Z,9.64
2019-03-21T13:57:19.791Z,9.43
2019-03-21T14:00:26.762Z,9.41
2019-03-21T14:03:33.641Z,9.41
2019-03-21T14:06:41.503Z,9.43
2019-03-21T14:09:48.576Z,9.35
2019-03-21T14:12:55.533Z,9.28
2019-03-21T14:16:02.403Z,9.31
2019-03-21T14:19:09.423Z,9.25
2019-03-21T14:22:16.365Z,9.22
2019-03-21T14:25:23.259Z,9.23
2019-03-21T14:28:30.143Z,9.23
2019-03-21T14:31:37.162Z,9.23
2019-03-21T14:34:44.305Z,9.29
2019-03-21T14:37:53.113Z,9.28
2019-03-21T14:41:00.034Z,9.32
2019-03-21T14:44:07.193Z,9.38
2019-03-21T14:47:15.784Z,9.37
2019-03-21T14:50:22.873Z,9.50
2019-03-21T14:53:29.728Z,9.45
2019-03-21T14:56:36.935Z,9.42
2019-03-21T14:59:43.954Z,9.50
2019-03-21T15:02:50.999Z,9.44
2019-03-21T15:05:57.867Z,9.49
2019-03-21T15:09:06.593Z,9.65
2019-03-21T15:12:15.362Z,9.64
2019-03-21T15:15:23.944Z,9.71
2019-03-21T15:18:30.807Z,9.83
2019-03-21T15:21:37.697Z,9.78
2019-03-21T15:24:44.698Z,9.76
2019-03-21T15:27:51.613Z,9.79
2019-03-21T15:30:58.506Z,9.79
2019-03-21T15:34:05.587Z,9.90
2019-03-21T15:37:12.599Z,9.91
2019-03-21T15:40:19.833Z,9.90
2019-03-21T15:43:26.707Z,9.91
2019-03-21T15:46:33.744Z,9.80
2019-03-21T15:49:40.967Z,9.82
2019-03-21T15:52:48.287Z,9.78
2019-03-21T15:55:55.198Z,9.87
2019-03-21T15:59:02.079Z,9.72
2019-03-21T16:02:09.268Z,9.72
2019-03-21T16:05:16.158Z,9.75
2019-03-21T16:08:23.087Z,9.80
2019-03-21T16:11:32.625Z,9.81
2019-03-21T16:14:40.050Z,9.72
2019-03-21T16:17:47.513Z,9.53
2019-03-21T16:20:55.236Z,9.50
2019-03-21T16:24:05.454Z,9.37
2019-03-21T16:27:10.793Z,9.47
2019-03-21T16:30:17.802Z,9.47
2019-03-21T16:33:24.764Z,9.53
2019-03-21T16:36:31.787Z,9.45
2019-03-21T16:39:38.705Z,9.36
2019-03-21T16:42:47.240Z,9.34
2019-03-21T16:45:54.199Z,9.36
2019-03-21T16:49:03.484Z,9.37
2019-03-21T16:52:10.702Z,9.35
2019-03-21T16:55:17.654Z,9.36
2019-03-21T16:58:24.591Z,9.25
2019-03-21T17:01:34.692Z,9.13
2019-03-21T17:04:41.861Z,9.21
2019-03-21T17:07:48.955Z,9.10
2019-03-21T17:10:55.957Z,9.12
2019-03-21T17:14:04.583Z,9.09
2019-03-21T17:17:12.576Z,9.06
2019-03-21T17:20:22.219Z,9.10
2019-03-21T17:23:29.159Z,9.06
2019-03-21T17:26:36.899Z,8.99
2019-03-21T17:29:44.035Z,8.89
2019-03-21T17:32:50.988Z,8.75
2019-03-21T17:35:57.965Z,8.71
2019-03-21T17:39:10.615Z,8.80
2019-03-21T17:42:21.056Z,8.79
2019-03-21T17:45:29.952Z,8.85
2019-03-21T17:48:36.982Z,8.79
2019-03-21T17:51:48.436Z,8.83
2019-03-21T17:54:55.641Z,8.69
2019-03-21T17:58:05.506Z,8.45
2019-03-21T18:01:12.936Z,8.13
2019-03-21T18:04:21.217Z,8.61
2019-03-21T18:07:28.160Z,8.48
2019-03-21T18:10:35.193Z,8.60
2019-03-21T18:13:42.083Z,8.51
2019-03-21T18:16:49.109Z,8.59
2019-03-21T18:19:58.833Z,8.63
2019-03-21T18:23:08.486Z,8.53
2019-03-21T18:26:15.276Z,8.42
2019-03-21T18:29:24.392Z,8.50
2019-03-21T18:32:31.583Z,8.45
2019-03-21T18:35:41.638Z,8.53
2019-03-21T18:38:58.678Z,8.43
2019-03-21T18:41:57.195Z,8.48
2019-03-21T18:45:07.267Z,8.52
2019-03-21T18:48:16.190Z,8.48
2019-03-21T18:51:25.567Z,8.23
2019-03-21T18:54:32.530Z,8.40
2019-03-21T18:57:39.743Z,8.21
2019-03-21T19:00:46.895Z,8.26
2019-03-21T19:03:53.727Z,8.20
2019-03-21T19:07:03.719Z,8.32
2019-03-21T19:10:10.870Z,8.23
2019-03-21T19:13:17.892Z,8.30
2019-03-21T19:16:27.751Z,8.46
2019-03-21T19:19:34.747Z,8.38
2019-03-21T19:22:41.718Z,8.41
2019-03-21T19:25:48.541Z,8.49
2019-03-21T19:28:55.400Z,8.55
2019-03-21T19:32:02.269Z,8.30
2019-03-21T19:35:09.385Z,8.19
2019-03-21T19:38:16.727Z,8.02
2019-03-21T19:41:23.593Z,7.84
2019-03-21T19:44:30.608Z,7.76
2019-03-21T19:47:37.414Z,7.85
2019-03-21T19:50:44.871Z,7.65
2019-03-21T19:53:51.725Z,7.79
2019-03-21T19:56:58.834Z,7.70
2019-03-21T20:00:07.990Z,6.16
2019-03-21T20:03:14.929Z,7.64
2019-03-21T20:06:21.752Z,7.48
2019-03-21T20:09:28.596Z,7.37
2019-03-21T20:12:35.788Z,7.61
2019-03-21T20:15:42.920Z,7.58
2019-03-21T20:18:49.752Z,7.56
2019-03-21T20:21:56.801Z,7.41
2019-03-21T20:25:06.182Z,7.58
2019-03-21T20:28:13.326Z,7.47
2019-03-21T20:31:20.165Z,7.49
2019-03-21T20:34:27.146Z,7.42
2019-03-21T20:37:34.075Z,7.28
2019-03-21T20:40:41.077Z,7.19
2019-03-21T20:43:48.035Z,7.10
2019-03-21T20:46:54.928Z,7.13
2019-03-21T20:50:01.963Z,7.22
2019-03-21T20:53:09.714Z,7.06
2019-03-21T20:56:16.511Z,6.97
2019-03-21T20:59:23.506Z,7.07
2019-03-21T21:02:30.494Z,6.83
2019-03-21T21:05:37.508Z,6.54
2019-03-21T21:08:44.272Z,6.48
2019-03-21T21:11:51.325Z,6.58
2019-03-21T21:14:58.267Z,6.48
2019-03-21T21:18:05.229Z,6.72
2019-03-21T21:21:14.162Z,6.80
2019-03-21T21:24:21.191Z,6.77
2019-03-21T21:27:28.769Z,6.77
2019-03-21T21:30:36.519Z,6.67
2019-03-21T21:33:43.507Z,6.38
2019-03-21T21:36:50.456Z,6.32
2019-03-21T21:39:57.440Z,6.36
2019-03-21T21:43:04.412Z,6.43
2019-03-21T21:46:11.329Z,6.51
2019-03-21T21:49:18.316Z,6.61
2019-03-21T21:52:25.248Z,6.55
2019-03-21T21:55:33.850Z,6.47
2019-03-21T21:58:41.880Z,6.41
2019-03-21T22:01:48.769Z,6.33
2019-03-21T22:04:55.862Z,6.12
2019-03-21T22:08:03.280Z,6.12
2019-03-21T22:11:11.739Z,6.15
2019-03-21T22:14:18.824Z,6.15
2019-03-21T22:17:26.011Z,6.16
2019-03-21T22:20:33.011Z,6.19
2019-03-21T22:23:39.946Z,6.32
2019-03-21T22:26:46.906Z,6.35
2019-03-21T22:29:53.779Z,6.37
2019-03-21T22:33:00.695Z,6.42
2019-03-21T22:36:07.559Z,6.41
2019-03-21T22:39:14.746Z,6.28
2019-03-21T22:42:21.916Z,6.27
2019-03-21T22:45:28.901Z,6.30
2019-03-21T22:48:35.819Z,6.36
2019-03-21T22:51:42.716Z,6.41
2019-03-21T22:54:49.653Z,6.48
2019-03-21T22:57:56.825Z,6.32
2019-03-21T23:01:03.749Z,6.32
2019-03-21T23:04:10.769Z,6.41
2019-03-21T23:07:18.061Z,6.41
2019-03-21T23:10:24.926Z,6.38
2019-03-21T23:13:31.809Z,6.25
2019-03-21T23:16:38.681Z,6.17
2019-03-21T23:19:45.681Z,6.17
2019-03-21T23:22:52.783Z,6.07
2019-03-21T23:25:59.658Z,6.14
2019-03-21T23:29:06.565Z,6.16
2019-03-21T23:32:13.684Z,6.15
2019-03-21T23:35:20.706Z,6.11
2019-03-21T23:38:27.556Z,6.04
2019-03-21T23:41:34.884Z,5.98
2019-03-21T23:44:41.836Z,5.98
2019-03-21T23:47:48.640Z,5.94
2019-03-21T23:50:55.430Z,5.81
2019-03-21T23:54:02.556Z,5.90
2019-03-21T23:57:10.195Z,5.89
